createdAt,value
2023-02-26T00:01:28.510Z,46.52
2023-02-26T00:03:57.865Z,46.39
2023-02-26T00:06:26.856Z,46.39
2023-02-26T00:08:55.209Z,46.50
2023-02-26T00:11:23.216Z,46.67
2023-02-26T00:13:51.150Z,46.74
2023-02-26T00:16:24.584Z,46.25
2023-02-26T00:18:51.765Z,46.41
2023-02-26T00:21:20.992Z,46.38
2023-02-26T00:23:48.232Z,46.61
2023-02-26T00:26:15.486Z,46.35
2023-02-26T00:28:42.838Z,46.59
2023-02-26T00:31:10.554Z,46.54
2023-02-26T00:33:38.113Z,46.70
2023-02-26T00:36:22.874Z,46.56
2023-02-26T00:38:56.013Z,46.78
2023-02-26T00:41:23.193Z,47.34
2023-02-26T00:43:50.308Z,46.92
2023-02-26T00:46:23.827Z,46.95
2023-02-26T00:48:50.917Z,47.13
2023-02-26T00:51:41.750Z,47.18
2023-02-26T00:54:18.016Z,47.40
2023-02-26T00:56:44.939Z,47.30
2023-02-26T00:59:11.897Z,47.50
2023-02-26T01:01:38.994Z,47.77
2023-02-26T01:04:06.760Z,47.75
2023-02-26T01:06:35.571Z,47.62
2023-02-26T01:09:13.333Z,47.67
2023-02-26T01:11:40.461Z,47.41
2023-02-26T01:14:07.870Z,47.57
2023-02-26T01:16:50.911Z,47.84
2023-02-26T01:19:49.891Z,47.73
2023-02-26T01:22:25.729Z,48.49
2023-02-26T01:25:01.785Z,47.79
2023-02-26T01:27:28.904Z,48.25
2023-02-26T01:29:56.113Z,48.48
2023-02-26T01:32:23.138Z,48.65
2023-02-26T01:34:55.778Z,48.46
2023-02-26T01:37:34.663Z,49.62
2023-02-26T01:40:39.233Z,49.53
2023-02-26T01:43:13.227Z,49.07
2023-02-26T01:45:55.392Z,48.95
2023-02-26T01:48:37.449Z,49.02
2023-02-26T01:51:05.672Z,48.86
2023-02-26T01:53:32.650Z,49.45
2023-02-26T01:56:18.432Z,49.11
2023-02-26T01:58:49.470Z,48.97
2023-02-26T02:01:16.401Z,49.17
2023-02-26T02:03:43.825Z,48.91
2023-02-26T02:06:17.956Z,48.96
2023-02-26T02:08:45.876Z,48.73
2023-02-26T02:11:14.827Z,48.90
2023-02-26T02:13:57.122Z,48.69
2023-02-26T02:16:45.590Z,48.87
2023-02-26T02:19:38.119Z,48.52
2023-02-26T02:22:32.622Z,48.28
2023-02-26T02:25:25.322Z,48.08
2023-02-26T02:27:59.305Z,48.22
2023-02-26T02:30:58.461Z,48.03
2023-02-26T02:33:36.896Z,47.67
2023-02-26T02:36:13.749Z,47.84
2023-02-26T02:38:58.174Z,47.38
2023-02-26T02:41:32.713Z,47.45
2023-02-26T02:44:07.435Z,47.42
2023-02-26T02:46:43.566Z,47.85
2023-02-26T02:49:17.032Z,47.45
2023-02-26T02:52:01.927Z,47.33
2023-02-26T02:54:44.750Z,47.14
2023-02-26T02:57:20.114Z,46.97
2023-02-26T02:59:51.552Z,46.82
2023-02-26T03:02:35.952Z,46.50
2023-02-26T03:05:05.573Z,46.60
2023-02-26T03:07:36.979Z,46.57
2023-02-26T03:10:04.172Z,46.51
2023-02-26T03:12:34.023Z,46.59
2023-02-26T03:15:02.661Z,46.60
2023-02-26T03:17:48.088Z,46.78
2023-02-26T03:21:05.582Z,46.66
2023-02-26T03:23:46.856Z,46.71
2023-02-26T03:26:25.476Z,47.02
2023-02-26T03:28:59.366Z,47.02
2023-02-26T03:31:59.637Z,46.82
2023-02-26T03:34:43.456Z,47.02
2023-02-26T03:37:24.465Z,47.04
2023-02-26T03:39:56.437Z,47.02
2023-02-26T03:42:33.266Z,47.05
2023-02-26T03:45:22.827Z,47.01
2023-02-26T03:47:54.185Z,47.25
2023-02-26T03:50:34.394Z,46.94
2023-02-26T03:53:44.455Z,46.96
2023-02-26T03:56:20.623Z,47.05
2023-02-26T03:59:08.784Z,47.07
2023-02-26T04:02:02.667Z,47.35
2023-02-26T04:04:48.957Z,47.37
2023-02-26T04:07:18.929Z,47.35
2023-02-26T04:09:48.707Z,47.70
2023-02-26T04:12:16.270Z,47.50
2023-02-26T04:14:47.426Z,47.43
2023-02-26T04:17:14.523Z,47.37
2023-02-26T04:19:41.425Z,47.40
2023-02-26T04:22:08.572Z,47.34
2023-02-26T04:24:36.740Z,47.17
2023-02-26T04:27:04.082Z,47.26
2023-02-26T04:29:32.389Z,47.33
2023-02-26T04:31:59.642Z,47.46
2023-02-26T04:34:26.884Z,47.19
2023-02-26T04:36:54.130Z,47.15
2023-02-26T04:39:21.394Z,47.23
2023-02-26T04:41:49.011Z,47.34
2023-02-26T04:44:16.052Z,47.23
2023-02-26T04:46:45.400Z,47.15
2023-02-26T04:49:12.926Z,47.10
2023-02-26T04:51:44.200Z,47.26
2023-02-26T04:54:16.030Z,47.09
2023-02-26T04:56:43.055Z,47.08
2023-02-26T04:59:09.965Z,47.04
2023-02-26T05:01:37.103Z,47.01
2023-02-26T05:04:07.854Z,46.92
2023-02-26T05:06:35.405Z,47.15
2023-02-26T05:09:02.285Z,47.03
2023-02-26T05:11:30.668Z,46.94
2023-02-26T05:13:57.708Z,47.05
2023-02-26T05:16:24.920Z,47.00
2023-02-26T05:18:52.168Z,47.06
2023-02-26T05:21:19.770Z,47.01
2023-02-26T05:23:46.847Z,46.96
2023-02-26T05:26:13.751Z,46.91
2023-02-26T05:28:41.445Z,47.04
2023-02-26T05:31:08.785Z,47.07
2023-02-26T05:33:35.776Z,47.15
2023-02-26T05:36:02.797Z,47.20
2023-02-26T05:38:29.750Z,47.02
2023-02-26T05:40:58.321Z,47.03
2023-02-26T05:43:26.465Z,46.98
2023-02-26T05:45:54.234Z,47.21
2023-02-26T05:48:22.180Z,47.00
2023-02-26T05:50:50.590Z,47.30
2023-02-26T05:53:18.412Z,47.21
2023-02-26T05:55:45.578Z,47.42
2023-02-26T05:58:13.303Z,47.21
2023-02-26T06:00:40.261Z,47.31
2023-02-26T06:03:07.147Z,47.42
2023-02-26T06:05:36.186Z,47.32
2023-02-26T06:08:04.309Z,47.30
2023-02-26T06:10:32.803Z,47.34
2023-02-26T06:12:59.754Z,47.87
2023-02-26T06:15:26.637Z,47.86
2023-02-26T06:17:53.492Z,47.84
2023-02-26T06:20:20.539Z,48.05
2023-02-26T06:22:47.440Z,48.34
2023-02-26T06:25:14.410Z,48.37
2023-02-26T06:27:41.246Z,48.37
2023-02-26T06:30:08.820Z,48.45
2023-02-26T06:32:36.145Z,49.69
2023-02-26T06:35:03.210Z,49.54
2023-02-26T06:37:30.074Z,49.45
2023-02-26T06:39:57.036Z,49.76
2023-02-26T06:42:24.353Z,49.94
2023-02-26T06:44:51.295Z,50.23
2023-02-26T06:47:18.308Z,50.79
2023-02-26T06:49:45.206Z,51.24
2023-02-26T06:52:13.558Z,50.92
2023-02-26T06:54:40.730Z,51.28
2023-02-26T06:57:07.785Z,51.21
2023-02-26T06:59:34.723Z,51.90
2023-02-26T07:02:01.689Z,51.77
2023-02-26T07:04:28.640Z,51.71
2023-02-26T07:06:55.561Z,52.64
2023-02-26T07:09:22.545Z,52.33
2023-02-26T07:11:49.421Z,52.43
2023-02-26T07:14:17.626Z,52.56
2023-02-26T07:16:44.561Z,53.84
2023-02-26T07:19:11.496Z,53.46
2023-02-26T07:21:38.434Z,52.90
2023-02-26T07:24:05.797Z,52.89
2023-02-26T07:26:32.874Z,53.20
2023-02-26T07:28:59.775Z,53.01
2023-02-26T07:31:26.790Z,53.15
2023-02-26T07:33:54.238Z,53.37
2023-02-26T07:36:21.117Z,53.53
2023-02-26T07:38:48.015Z,53.51
2023-02-26T07:41:15.167Z,54.21
2023-02-26T07:43:42.875Z,55.61
2023-02-26T07:46:10.346Z,54.43
2023-02-26T07:48:37.328Z,54.56
2023-02-26T07:51:04.926Z,54.96
2023-02-26T07:53:31.863Z,54.72
2023-02-26T07:55:58.823Z,54.72
2023-02-26T07:58:26.096Z,54.88
2023-02-26T08:00:53.144Z,54.97
2023-02-26T08:03:20.513Z,54.56
2023-02-26T08:05:47.589Z,54.90
2023-02-26T08:08:14.744Z,55.18
2023-02-26T08:10:42.292Z,54.90
2023-02-26T08:13:09.966Z,54.88
2023-02-26T08:15:36.924Z,55.11
2023-02-26T08:18:04.289Z,55.46
2023-02-26T08:20:31.337Z,55.11
2023-02-26T08:22:58.380Z,55.47
2023-02-26T08:25:25.245Z,56.10
2023-02-26T08:27:52.235Z,56.10
2023-02-26T08:30:19.448Z,56.02
2023-02-26T08:32:46.427Z,56.29
2023-02-26T08:35:13.995Z,56.02
2023-02-26T08:37:40.839Z,56.22
2023-02-26T08:40:09.327Z,55.78
2023-02-26T08:42:36.714Z,56.35
2023-02-26T08:45:03.977Z,56.62
2023-02-26T08:47:31.980Z,56.17
2023-02-26T08:49:59.135Z,55.95
2023-02-26T08:52:26.502Z,56.67
2023-02-26T08:54:53.409Z,57.37
2023-02-26T08:57:20.390Z,56.95
2023-02-26T08:59:47.256Z,57.81
2023-02-26T09:02:14.906Z,57.23
2023-02-26T09:04:41.845Z,56.75
2023-02-26T09:07:08.821Z,56.97
2023-02-26T09:09:35.802Z,56.63
2023-02-26T09:12:02.768Z,56.08
2023-02-26T09:14:29.807Z,56.15
2023-02-26T09:16:56.791Z,56.53
2023-02-26T09:19:23.953Z,56.17
2023-02-26T09:21:50.871Z,56.35
2023-02-26T09:24:18.059Z,56.64
2023-02-26T09:26:45.034Z,55.97
2023-02-26T09:29:13.388Z,56.42
2023-02-26T09:31:40.409Z,55.77
2023-02-26T09:34:09.277Z,55.09
2023-02-26T09:36:37.673Z,54.27
2023-02-26T09:39:04.900Z,53.80
2023-02-26T09:41:39.085Z,52.66
2023-02-26T09:44:28.138Z,52.28
2023-02-26T09:47:16.726Z,51.53
2023-02-26T09:50:07.347Z,51.52
2023-02-26T09:52:38.320Z,51.66
2023-02-26T09:55:12.531Z,51.44
2023-02-26T09:57:44.548Z,51.49
2023-02-26T10:00:47.650Z,51.16
2023-02-26T10:03:22.917Z,51.33
2023-02-26T10:06:10.782Z,51.08
2023-02-26T10:08:56.019Z,50.58
2023-02-26T10:11:41.644Z,51.12
2023-02-26T10:14:19.416Z,51.58
2023-02-26T10:16:51.653Z,51.34
2023-02-26T10:19:24.186Z,50.89
2023-02-26T10:22:11.254Z,50.50
2023-02-26T10:24:43.507Z,50.34
2023-02-26T10:27:16.593Z,49.61
2023-02-26T10:29:59.992Z,48.59
2023-02-26T10:32:58.144Z,47.44
2023-02-26T10:35:29.631Z,47.56
2023-02-26T10:37:59.239Z,46.85
2023-02-26T10:40:37.305Z,46.26
2023-02-26T10:43:22.191Z,45.72
2023-02-26T10:45:52.721Z,43.75
2023-02-26T10:48:25.247Z,44.36
2023-02-26T10:50:54.666Z,43.46
2023-02-26T10:53:22.230Z,42.67
2023-02-26T10:55:51.877Z,42.39
2023-02-26T10:58:23.906Z,40.73
2023-02-26T11:00:54.455Z,40.62
2023-02-26T11:03:34.325Z,37.95
2023-02-26T11:06:06.021Z,36.07
2023-02-26T11:08:40.902Z,32.99
2023-02-26T11:11:08.113Z,31.12
2023-02-26T11:13:38.940Z,31.49
2023-02-26T11:16:15.508Z,31.03
2023-02-26T11:18:48.528Z,30.47
2023-02-26T11:21:24.741Z,29.59
2023-02-26T11:24:03.163Z,31.03
2023-02-26T11:26:34.652Z,32.74
2023-02-26T11:29:02.208Z,33.90
2023-02-26T11:31:30.532Z,34.35
2023-02-26T11:34:05.152Z,34.50
2023-02-26T11:36:34.356Z,35.16
2023-02-26T11:39:06.351Z,35.58
2023-02-26T11:41:38.416Z,36.26
2023-02-26T11:44:15.626Z,36.17
2023-02-26T11:46:51.158Z,36.27
2023-02-26T11:49:21.791Z,37.23
2023-02-26T11:52:01.898Z,36.64
2023-02-26T11:54:29.690Z,37.36
2023-02-26T11:57:21.053Z,37.54
2023-02-26T11:59:51.123Z,37.99
2023-02-26T12:02:24.547Z,37.27
2023-02-26T12:04:55.250Z,37.25
2023-02-26T12:07:22.842Z,38.30
2023-02-26T12:09:50.119Z,37.62
2023-02-26T12:12:32.648Z,37.38
2023-02-26T12:15:21.534Z,37.82
2023-02-26T12:17:51.245Z,37.58
2023-02-26T12:20:25.958Z,37.54
2023-02-26T12:23:15.848Z,37.71
2023-02-26T12:26:03.586Z,37.78
2023-02-26T12:28:45.139Z,38.24
2023-02-26T12:31:33.950Z,38.35
2023-02-26T12:34:20.431Z,38.47
2023-02-26T12:36:58.264Z,38.83
2023-02-26T12:39:43.165Z,38.92
2023-02-26T12:42:26.812Z,38.64
2023-02-26T12:45:18.347Z,38.06
2023-02-26T12:48:04.457Z,37.82
2023-02-26T12:50:54.010Z,37.83
2023-02-26T12:53:39.273Z,37.47
2023-02-26T12:56:33.522Z,37.60
2023-02-26T12:59:07.787Z,37.69
2023-02-26T13:02:15.853Z,37.08
2023-02-26T13:05:36.865Z,37.32
2023-02-26T13:08:13.741Z,38.54
2023-02-26T13:11:11.279Z,39.47
2023-02-26T13:13:52.941Z,39.85
2023-02-26T13:16:39.364Z,40.90
2023-02-26T13:19:13.553Z,41.40
2023-02-26T13:21:48.951Z,41.25
2023-02-26T13:24:22.953Z,41.76
2023-02-26T13:26:51.471Z,41.92
2023-02-26T13:29:25.164Z,41.93
2023-02-26T13:32:26.023Z,41.42
2023-02-26T13:34:55.490Z,41.41
2023-02-26T13:37:33.862Z,41.30
2023-02-26T13:40:34.917Z,42.80
2023-02-26T13:43:30.037Z,46.28
2023-02-26T13:46:11.420Z,46.51
2023-02-26T13:49:10.228Z,48.25
2023-02-26T13:51:41.566Z,48.34
2023-02-26T13:54:17.431Z,48.56
2023-02-26T13:56:55.771Z,49.50
2023-02-26T13:59:31.636Z,50.43
2023-02-26T14:02:03.684Z,50.83
2023-02-26T14:04:54.074Z,51.13
2023-02-26T14:07:53.026Z,51.27
2023-02-26T14:10:33.834Z,51.02
2023-02-26T14:13:20.603Z,51.38
2023-02-26T14:16:11.794Z,52.74
2023-02-26T14:19:06.315Z,52.17
2023-02-26T14:21:33.138Z,51.55
2023-02-26T14:24:06.757Z,51.77
2023-02-26T14:26:37.097Z,51.48
2023-02-26T14:29:06.757Z,51.60
2023-02-26T14:32:05.974Z,52.37
2023-02-26T14:34:42.082Z,52.21
2023-02-26T14:37:16.269Z,51.98
2023-02-26T14:39:53.453Z,51.65
2023-02-26T14:42:27.092Z,51.51
2023-02-26T14:45:09.709Z,51.50
2023-02-26T14:47:37.901Z,51.06
2023-02-26T14:50:07.248Z,50.98
2023-02-26T14:52:47.300Z,51.66
2023-02-26T14:55:17.182Z,51.46
2023-02-26T14:58:02.374Z,52.00
2023-02-26T15:00:37.191Z,51.88
2023-02-26T15:03:16.037Z,52.08
2023-02-26T15:06:10.404Z,51.59
2023-02-26T15:08:43.439Z,51.62
2023-02-26T15:11:50.548Z,52.14
2023-02-26T15:14:29.889Z,52.49
2023-02-26T15:17:29.153Z,52.67
2023-02-26T15:20:33.922Z,53.17
2023-02-26T15:23:03.491Z,52.23
2023-02-26T15:25:40.933Z,53.13
2023-02-26T15:28:13.774Z,52.93
2023-02-26T15:30:43.816Z,52.32
2023-02-26T15:33:16.370Z,52.13
2023-02-26T15:35:44.823Z,52.56
2023-02-26T15:38:11.825Z,53.12
2023-02-26T15:40:39.466Z,53.45
2023-02-26T15:43:09.343Z,53.55
2023-02-26T15:45:43.485Z,53.73
2023-02-26T15:48:16.884Z,54.14
2023-02-26T15:50:47.876Z,53.99
2023-02-26T15:53:29.965Z,54.87
2023-02-26T15:56:00.795Z,54.77
2023-02-26T15:58:53.502Z,54.62
2023-02-26T16:01:23.799Z,53.85
2023-02-26T16:03:53.179Z,53.97
2023-02-26T16:06:25.733Z,55.04
2023-02-26T16:08:52.916Z,55.40
2023-02-26T16:11:21.547Z,55.23
2023-02-26T16:13:52.900Z,54.91
2023-02-26T16:16:28.123Z,55.42
2023-02-26T16:18:57.725Z,55.60
2023-02-26T16:21:31.449Z,55.87
2023-02-26T16:24:00.352Z,54.99
2023-02-26T16:26:32.740Z,56.16
2023-02-26T16:29:04.513Z,55.75
2023-02-26T16:31:37.269Z,56.63
2023-02-26T16:34:08.976Z,56.43
2023-02-26T16:36:41.568Z,56.20
2023-02-26T16:39:08.450Z,56.51
2023-02-26T16:41:38.576Z,56.38
2023-02-26T16:44:38.053Z,57.77
2023-02-26T16:47:05.730Z,57.67
2023-02-26T16:49:35.756Z,57.37
2023-02-26T16:52:03.647Z,57.21
2023-02-26T16:54:41.134Z,57.81
2023-02-26T16:57:19.975Z,58.45
2023-02-26T16:59:55.522Z,58.00
2023-02-26T17:02:33.111Z,57.90
2023-02-26T17:05:05.917Z,57.97
2023-02-26T17:07:36.393Z,58.03
2023-02-26T17:10:29.420Z,58.53
2023-02-26T17:13:05.058Z,58.88
2023-02-26T17:15:36.447Z,58.97
2023-02-26T17:18:04.254Z,58.68
2023-02-26T17:20:32.031Z,58.74
2023-02-26T17:23:01.481Z,58.80
2023-02-26T17:25:42.416Z,59.49
2023-02-26T17:28:16.499Z,58.93
2023-02-26T17:30:43.524Z,59.07
2023-02-26T17:33:13.744Z,59.09
2023-02-26T17:35:41.961Z,58.45
2023-02-26T17:38:13.393Z,59.25
2023-02-26T17:40:41.966Z,58.93
2023-02-26T17:43:10.185Z,58.25
2023-02-26T17:45:40.302Z,59.07
2023-02-26T17:48:08.396Z,59.60
2023-02-26T17:50:40.924Z,60.47
2023-02-26T17:53:08.866Z,61.30
2023-02-26T17:55:39.348Z,60.61
2023-02-26T17:58:08.575Z,60.11
2023-02-26T18:00:40.728Z,60.35
2023-02-26T18:03:09.976Z,60.52
2023-02-26T18:05:39.306Z,61.05
2023-02-26T18:08:06.967Z,61.06
2023-02-26T18:10:33.982Z,61.10
2023-02-26T18:13:00.899Z,60.79
2023-02-26T18:15:27.818Z,60.88
2023-02-26T18:17:54.747Z,60.25
2023-02-26T18:20:22.804Z,59.47
2023-02-26T18:22:50.578Z,59.40
2023-02-26T18:25:18.210Z,58.70
2023-02-26T18:27:47.967Z,58.76
2023-02-26T18:30:22.732Z,56.06
2023-02-26T18:32:49.577Z,56.09
2023-02-26T18:35:18.017Z,55.14
2023-02-26T18:37:45.911Z,54.73
2023-02-26T18:40:16.005Z,55.11
2023-02-26T18:42:43.544Z,54.80
2023-02-26T18:45:11.796Z,55.17
2023-02-26T18:47:39.671Z,55.87
2023-02-26T18:50:07.987Z,55.54
2023-02-26T18:52:35.803Z,55.72
2023-02-26T18:55:03.227Z,56.39
2023-02-26T18:57:30.801Z,56.10
2023-02-26T18:59:57.701Z,56.79
2023-02-26T19:02:25.166Z,56.90
2023-02-26T19:04:52.510Z,56.75
2023-02-26T19:07:19.889Z,57.01
2023-02-26T19:09:47.277Z,56.13
2023-02-26T19:12:18.882Z,55.97
2023-02-26T19:14:46.453Z,56.00
2023-02-26T19:17:13.844Z,56.06
2023-02-26T19:19:42.372Z,55.96
2023-02-26T19:22:10.642Z,57.16
2023-02-26T19:24:37.768Z,56.43
2023-02-26T19:27:04.701Z,56.58
2023-02-26T19:29:33.974Z,57.46
2023-02-26T19:32:01.300Z,58.22
2023-02-26T19:34:28.372Z,58.71
2023-02-26T19:36:56.409Z,59.17
2023-02-26T19:39:24.307Z,59.39
2023-02-26T19:41:54.363Z,60.17
2023-02-26T19:44:22.769Z,59.52
2023-02-26T19:46:50.612Z,59.76
2023-02-26T19:49:18.937Z,60.08
2023-02-26T19:51:46.274Z,59.92
2023-02-26T19:54:14.312Z,60.72
2023-02-26T19:56:43.246Z,60.40
2023-02-26T19:59:10.928Z,60.54
2023-02-26T20:01:37.929Z,60.70
2023-02-26T20:04:04.968Z,60.13
2023-02-26T20:06:32.026Z,60.00
2023-02-26T20:08:59.118Z,59.86
2023-02-26T20:11:26.820Z,60.32
2023-02-26T20:13:53.943Z,60.47
2023-02-26T20:16:20.936Z,61.03
2023-02-26T20:18:47.926Z,60.83
2023-02-26T20:21:15.422Z,60.76
2023-02-26T20:23:43.323Z,61.90
2023-02-26T20:26:15.563Z,61.77
2023-02-26T20:28:43.530Z,61.68
2023-02-26T20:31:11.390Z,61.93
2023-02-26T20:33:39.825Z,62.38
2023-02-26T20:36:10.483Z,62.06
2023-02-26T20:38:38.557Z,62.65
2023-02-26T20:41:05.893Z,62.47
2023-02-26T20:43:33.472Z,62.26
2023-02-26T20:46:00.557Z,61.47
2023-02-26T20:48:27.566Z,61.74
2023-02-26T20:51:00.392Z,61.27
2023-02-26T20:53:28.060Z,61.09
2023-02-26T20:55:57.257Z,60.42
2023-02-26T20:58:26.198Z,60.10
2023-02-26T21:00:58.053Z,60.27
2023-02-26T21:03:26.235Z,60.51
2023-02-26T21:05:54.417Z,60.85
2023-02-26T21:08:24.258Z,60.08
2023-02-26T21:10:52.379Z,60.91
2023-02-26T21:13:20.028Z,60.97
2023-02-26T21:15:50.995Z,60.37
2023-02-26T21:18:18.343Z,59.97
2023-02-26T21:20:45.337Z,60.10
2023-02-26T21:23:12.444Z,60.77
2023-02-26T21:25:40.185Z,60.16
2023-02-26T21:28:07.569Z,58.16
2023-02-26T21:30:36.282Z,59.72
2023-02-26T21:33:03.696Z,59.78
2023-02-26T21:35:32.109Z,60.58
2023-02-26T21:38:00.569Z,60.35
2023-02-26T21:40:28.346Z,61.13
2023-02-26T21:42:55.326Z,61.50
2023-02-26T21:45:22.241Z,60.00
2023-02-26T21:47:49.238Z,61.50
2023-02-26T21:50:16.304Z,63.53
2023-02-26T21:52:44.055Z,63.87
2023-02-26T21:55:11.694Z,64.46
2023-02-26T21:57:38.942Z,64.07
2023-02-26T22:00:10.288Z,65.46
2023-02-26T22:02:40.449Z,65.33
2023-02-26T22:05:07.655Z,64.73
2023-02-26T22:07:34.776Z,64.94
2023-02-26T22:10:01.776Z,64.06
2023-02-26T22:12:28.662Z,65.35
2023-02-26T22:14:55.991Z,65.37
2023-02-26T22:17:23.626Z,64.95
2023-02-26T22:19:51.743Z,63.83
2023-02-26T22:22:19.021Z,63.68
2023-02-26T22:24:46.003Z,64.44
2023-02-26T22:27:13.039Z,64.27
2023-02-26T22:29:40.119Z,63.94
2023-02-26T22:32:07.346Z,64.25
2023-02-26T22:34:34.556Z,63.20
2023-02-26T22:37:01.809Z,63.63
2023-02-26T22:39:28.852Z,63.59
2023-02-26T22:41:55.767Z,62.97
2023-02-26T22:44:22.745Z,62.91
2023-02-26T22:46:50.136Z,62.58
2023-02-26T22:49:18.163Z,63.10
2023-02-26T22:51:46.002Z,63.09
2023-02-26T22:54:13.097Z,63.70
2023-02-26T22:56:40.059Z,63.85
2023-02-26T22:59:06.948Z,63.62
2023-02-26T23:01:33.976Z,62.85
2023-02-26T23:04:01.012Z,61.59
2023-02-26T23:06:27.985Z,61.43
2023-02-26T23:08:54.866Z,60.99
2023-02-26T23:11:21.839Z,58.24
2023-02-26T23:13:48.772Z,57.92
2023-02-26T23:16:16.002Z,58.16
2023-02-26T23:18:45.621Z,57.40
2023-02-26T23:21:12.650Z,58.15
2023-02-26T23:23:39.874Z,57.93
2023-02-26T23:26:07.611Z,57.32
2023-02-26T23:28:35.200Z,57.58
2023-02-26T23:31:02.541Z,57.34
2023-02-26T23:33:29.443Z,58.37
2023-02-26T23:35:56.925Z,58.59
2023-02-26T23:38:23.976Z,59.41
2023-02-26T23:40:51.053Z,59.80
2023-02-26T23:43:18.162Z,60.21
2023-02-26T23:45:45.135Z,60.16
2023-02-26T23:48:12.030Z,59.01
2023-02-26T23:50:39.013Z,59.09
2023-02-26T23:53:06.194Z,59.97
2023-02-26T23:55:33.179Z,59.18
2023-02-26T23:58:00.149Z,59.50
